Time;durP1;ratioP1;P1;durP2;ratioP2;P2;SDS_P1;SDS_P2;PMS_P1;PMS_P2;Temp;Humidity;BMP_temperature;BMP_pressure;BME280_temperature;BME280_humidity;BME280_pressure;Samples;Min_cycle;Max_cycle;Signal;HPM_P1;HPM_P2
2022/02/25 00:00:43;;;;;;;13.73;7.50;;;;;;;0.55;57.48;94254.16;5064324;28;20315;-72
2022/02/25 00:03:09;;;;;;;16.38;6.72;;;;;;;0.53;57.33;94254.41;5064251;28;20013;-72
2022/02/25 00:05:35;;;;;;;20.58;7.93;;;;;;;0.52;57.70;94252.03;5064532;28;20017;-72
2022/02/25 00:08:01;;;;;;;17.33;7.72;;;;;;;0.48;57.44;94240.44;5064605;28;20086;-72
2022/02/25 00:10:27;;;;;;;23.48;9.43;;;;;;;0.47;57.34;94238.81;5064130;28;20035;-72
2022/02/25 00:12:52;;;;;;;21.35;9.18;;;;;;;0.45;57.52;94233.84;5064177;28;20048;-73
2022/02/25 00:15:18;;;;;;;24.90;8.38;;;;;;;0.49;57.62;94234.94;5064069;28;20029;-72
2022/02/25 00:17:44;;;;;;;18.65;8.40;;;;;;;0.50;57.24;94228.66;5063612;28;20092;-72
2022/02/25 00:20:11;;;;;;;25.75;8.63;;;;;;;0.49;57.56;94232.31;5063586;28;20311;-72
2022/02/25 00:22:37;;;;;;;16.85;7.30;;;;;;;0.48;57.46;94224.69;5064146;28;20063;-72
2022/02/25 00:25:03;;;;;;;22.52;9.27;;;;;;;0.52;57.73;94223.19;5063833;28;20021;-72
2022/02/25 00:27:29;;;;;;;26.20;10.27;;;;;;;0.50;57.04;94217.38;5063966;28;20016;-72
2022/02/25 00:29:54;;;;;;;22.73;9.65;;;;;;;0.42;56.89;94221.19;5063606;28;20023;-73
2022/02/25 00:32:21;;;;;;;25.10;10.43;;;;;;;0.39;57.35;94226.94;5062572;28;20025;-72
2022/02/25 00:34:46;;;;;;;21.85;9.93;;;;;;;0.40;57.85;94207.53;5063756;28;20088;-73
2022/02/25 00:37:12;;;;;;;23.92;9.98;;;;;;;0.40;57.83;94207.53;5063877;28;20021;-73
2022/02/25 00:39:37;;;;;;;26.90;10.02;;;;;;;0.45;57.75;94204.19;5063482;28;20368;-72
2022/02/25 00:42:05;;;;;;;18.30;8.52;;;;;;;0.46;57.17;94203.94;5063891;28;20020;-72
2022/02/25 00:44:31;;;;;;;12.73;5.90;;;;;;;0.40;55.97;94207.53;5063865;28;20032;-72
2022/02/25 00:46:56;;;;;;;15.20;6.70;;;;;;;0.39;55.86;94198.09;5063592;28;20025;-72
2022/02/25 00:49:21;;;;;;;14.55;6.45;;;;;;;0.41;55.73;94196.03;5063513;28;20051;-72
2022/02/25 00:51:47;;;;;;;16.45;7.07;;;;;;;0.39;56.14;94192.84;5063647;28;20044;-72
2022/02/25 00:54:12;;;;;;;18.38;8.32;;;;;;;0.39;56.34;94190.22;5063386;28;20224;-72
2022/02/25 00:56:38;;;;;;;24.58;9.07;;;;;;;0.37;56.90;94190.47;5063129;28;20234;-72
2022/02/25 00:59:03;;;;;;;20.60;8.60;;;;;;;0.35;56.71;94194.38;5063197;28;20096;-72
2022/02/25 01:01:29;;;;;;;18.83;7.15;;;;;;;0.31;57.10;94182.78;5063551;28;20013;-72
2022/02/25 01:03:54;;;;;;;21.27;8.73;;;;;;;0.33;57.03;94191.97;5063340;28;20025;-72
2022/02/25 01:06:20;;;;;;;34.20;10.23;;;;;;;0.33;56.98;94196.44;5063032;28;20043;-71
2022/02/25 01:08:45;;;;;;;36.22;11.73;;;;;;;0.33;57.38;94185.94;5062897;28;20041;-71
2022/02/25 01:11:10;;;;;;;33.33;12.38;;;;;;;0.35;57.64;94186.50;5062833;28;20082;-71
2022/02/25 01:13:36;;;;;;;30.48;9.50;;;;;;;0.36;57.46;94185.44;5062885;28;20061;-73
2022/02/25 01:16:01;;;;;;;25.27;8.23;;;;;;;0.34;57.29;94187.50;5063270;28;20028;-71
2022/02/25 01:18:26;;;;;;;18.08;8.43;;;;;;;0.33;57.16;94180.69;5062715;28;20235;-72
2022/02/25 01:20:53;;;;;;;18.00;6.93;;;;;;;0.28;57.19;94178.00;5063104;28;20052;-73
2022/02/25 01:23:19;;;;;;;22.15;7.97;;;;;;;0.28;57.27;94181.41;5062837;28;20084;-73
2022/02/25 01:25:44;;;;;;;20.08;7.68;;;;;;;0.27;57.28;94176.41;5062984;28;20029;-73
2022/02/25 01:28:09;;;;;;;11.82;5.75;;;;;;;0.27;57.50;94173.78;5062911;28;20218;-73
2022/02/25 01:30:35;;;;;;;15.52;5.97;;;;;;;0.22;57.87;94174.50;5062610;28;20033;-73
2022/02/25 01:33:00;;;;;;;16.05;6.70;;;;;;;0.23;57.92;94175.31;5063071;28;20029;-74
2022/02/25 01:35:26;;;;;;;15.55;6.45;;;;;;;0.14;58.20;94165.22;5062815;28;20029;-73
2022/02/25 01:37:52;;;;;;;17.48;6.72;;;;;;;0.16;57.41;94160.53;5062762;28;20024;-73
2022/02/25 01:40:17;;;;;;;14.35;6.35;;;;;;;0.12;57.49;94162.06;5062524;28;20031;-73
2022/02/25 01:42:47;;;;;;;13.77;5.63;;;;;;;0.15;57.92;94160.78;5062639;28;20029;-73
2022/02/25 01:45:14;;;;;;;13.13;6.28;;;;;;;0.12;57.81;94154.19;5062708;28;20013;-73
2022/02/25 01:47:39;;;;;;;14.32;5.82;;;;;;;0.10;58.00;94156.25;5062762;28;20366;-73
2022/02/25 01:50:05;;;;;;;14.45;6.95;;;;;;;0.08;58.17;94153.09;5062527;28;20033;-74
2022/02/25 01:52:31;;;;;;;12.90;5.90;;;;;;;0.07;57.62;94151.50;5062779;28;20029;-73
2022/02/25 01:54:57;;;;;;;12.55;6.15;;;;;;;0.03;57.99;94154.84;5062489;28;20067;-73
2022/02/25 01:57:22;;;;;;;15.55;5.85;;;;;;;-0.02;58.10;94148.47;5062379;28;20029;-73
2022/02/25 01:59:48;;;;;;;15.18;5.65;;;;;;;-0.02;58.13;94148.47;5062525;28;20017;-73
2022/02/25 02:02:13;;;;;;;11.30;5.30;;;;;;;-0.02;58.05;94153.72;5062625;28;20025;-73
2022/02/25 02:04:39;;;;;;;12.80;5.80;;;;;;;-0.02;57.99;94143.25;5062443;28;20047;-73
2022/02/25 02:07:05;;;;;;;13.80;5.22;;;;;;;-0.01;58.15;94141.41;5062478;28;20021;-73
2022/02/25 02:09:30;;;;;;;15.73;5.85;;;;;;;0.02;58.18;94134.88;5062562;28;20021;-74
2022/02/25 02:11:56;;;;;;;13.88;5.85;;;;;;;0.02;58.10;94130.47;5062408;28;20052;-74
2022/02/25 02:14:24;;;;;;;8.80;4.65;;;;;;;0.02;57.78;94140.94;5062533;28;20029;-73
2022/02/25 02:16:52;;;;;;;17.90;7.38;;;;;;;0.04;57.80;94130.19;5062270;28;20017;-74
2022/02/25 02:19:18;;;;;;;26.83;7.95;;;;;;;0.00;57.73;94140.38;5062284;28;20092;-74
2022/02/25 02:21:48;;;;;;;22.83;7.60;;;;;;;-0.05;58.05;94133.22;5062258;28;20026;-74
2022/02/25 02:24:15;;;;;;;26.55;8.82;;;;;;;-0.05;58.56;94132.44;5060915;28;20066;-74
2022/02/25 02:26:42;;;;;;;13.95;5.32;;;;;;;-0.07;58.66;94126.66;5062310;28;20021;-73
2022/02/25 02:29:09;;;;;;;14.57;4.28;;;;;;;-0.09;57.57;94123.47;5061049;28;20070;-73
2022/02/25 02:31:35;;;;;;;17.02;4.47;;;;;;;-0.10;57.75;94134.97;5062230;28;20084;-74
2022/02/25 02:34:02;;;;;;;11.95;5.15;;;;;;;-0.11;57.69;94120.28;5062413;28;20063;-73
2022/02/25 02:36:27;;;;;;;11.10;5.60;;;;;;;-0.13;57.39;94119.75;5061994;28;20029;-73
2022/02/25 02:38:53;;;;;;;11.77;4.82;;;;;;;-0.08;57.44;94122.41;5061008;28;20100;-71
2022/02/25 02:41:19;;;;;;;12.05;4.50;;;;;;;-0.11;57.66;94121.09;5062612;28;20020;-73
2022/02/25 02:43:45;;;;;;;13.10;5.40;;;;;;;-0.09;57.71;94120.84;5065938;28;20024;-75
2022/02/25 02:46:11;;;;;;;12.60;5.10;;;;;;;-0.13;57.90;94115.28;5065953;28;20364;-73
2022/02/25 02:48:38;;;;;;;10.77;5.53;;;;;;;-0.17;58.03;94114.19;5065961;28;20067;-75
2022/02/25 02:51:04;;;;;;;13.13;6.35;;;;;;;-0.16;58.16;94107.09;5064937;28;20013;-74
2022/02/25 02:53:30;;;;;;;15.13;6.32;;;;;;;-0.14;58.75;94113.72;5065782;28;20108;-74
2022/02/25 02:55:55;;;;;;;21.83;7.80;;;;;;;-0.16;58.98;94117.59;5065650;28;20035;-76
2022/02/25 02:58:21;;;;;;;26.25;10.95;;;;;;;-0.19;59.59;94118.88;5065729;28;20024;-75
2022/02/25 03:00:48;;;;;;;31.48;13.50;;;;;;;-0.22;60.62;94114.13;5065600;28;20211;-76
2022/02/25 03:03:14;;;;;;;19.98;8.32;;;;;;;-0.22;60.71;94117.53;5065501;28;20319;-75
2022/02/25 03:05:41;;;;;;;20.50;7.65;;;;;;;-0.27;60.16;94127.91;5065382;28;20041;-76
2022/02/25 03:08:08;;;;;;;31.73;12.25;;;;;;;-0.34;60.47;94118.66;5065489;28;20041;-74
2022/02/25 03:10:35;;;;;;;32.95;13.50;;;;;;;-0.37;61.56;94119.13;5065496;28;20364;-74
2022/02/25 03:13:01;;;;;;;34.40;13.57;;;;;;;-0.42;62.16;94112.75;5065347;28;20354;-74
2022/02/25 03:15:26;;;;;;;27.95;12.20;;;;;;;-0.41;61.98;94116.16;5065282;28;20067;-75
2022/02/25 03:17:52;;;;;;;22.58;10.05;;;;;;;-0.43;61.89;94111.19;5065495;28;20331;-75
2022/02/25 03:20:17;;;;;;;22.13;9.95;;;;;;;-0.45;61.73;94101.97;5065163;28;20028;-75
2022/02/25 03:22:43;;;;;;;45.63;15.02;;;;;;;-0.44;62.27;94112.22;5065379;28;20096;-75
2022/02/25 03:25:09;;;;;;;29.83;14.32;;;;;;;-0.46;62.60;94110.88;5065159;28;20029;-75
2022/02/25 03:27:35;;;;;;;32.15;14.52;;;;;;;-0.46;62.92;94108.25;5065221;28;20053;-75
2022/02/25 03:30:01;;;;;;;36.47;14.15;;;;;;;-0.47;62.94;94110.09;5065295;28;20040;-75
2022/02/25 03:32:27;;;;;;;33.35;12.80;;;;;;;-0.49;62.66;94112.16;5065213;28;20025;-75
2022/02/25 03:34:52;;;;;;;34.50;14.50;;;;;;;-0.48;62.89;94120.78;5063896;28;20060;-75
2022/02/25 03:37:19;;;;;;;37.22;13.80;;;;;;;-0.49;62.63;94116.56;5064855;28;20039;-75
2022/02/25 03:39:45;;;;;;;34.90;14.48;;;;;;;-0.49;62.86;94121.81;5064967;28;20084;-75
2022/02/25 03:42:10;;;;;;;46.05;16.17;;;;;;;-0.53;62.97;94121.50;5064641;28;20025;-75
2022/02/25 03:44:36;;;;;;;37.10;16.20;;;;;;;-0.53;63.56;94137.22;5065049;28;20025;-75
2022/02/25 03:47:03;;;;;;;35.85;15.10;;;;;;;-0.48;63.55;94128.63;5064754;28;20319;-75
2022/02/25 03:49:28;;;;;;;37.42;15.43;;;;;;;-0.50;63.18;94131.50;5064720;28;20051;-75
2022/02/25 03:51:54;;;;;;;32.70;13.82;;;;;;;-0.49;63.21;94132.28;5064529;28;20374;-75
2022/02/25 03:54:19;;;;;;;29.65;11.95;;;;;;;-0.51;63.02;94135.16;5063496;28;20127;-75
2022/02/25 03:56:45;;;;;;;24.38;11.98;;;;;;;-0.56;62.87;94126.41;5063519;28;20029;-75
2022/02/25 03:59:11;;;;;;;26.65;10.63;;;;;;;-0.59;62.59;94134.72;5064610;28;20095;-75
2022/02/25 04:01:36;;;;;;;30.08;12.70;;;;;;;-0.61;62.84;94138.38;5064644;28;20040;-74
2022/02/25 04:04:02;;;;;;;38.15;13.23;;;;;;;-0.64;63.29;94138.84;5064207;28;20025;-74
2022/02/25 04:06:27;;;;;;;35.83;14.23;;;;;;;-0.70;64.13;94147.66;5064214;28;20231;-73
2022/02/25 04:08:54;;;;;;;37.65;14.15;;;;;;;-0.77;64.36;94144.41;5063320;28;20028;-73
2022/02/25 04:11:21;;;;;;;35.20;14.90;;;;;;;-0.83;64.62;94147.94;5064142;28;20029;-73
2022/02/25 04:13:47;;;;;;;33.97;13.95;;;;;;;-0.82;64.71;94149.53;5063068;28;20024;-73
2022/02/25 04:16:13;;;;;;;30.50;12.95;;;;;;;-0.78;64.03;94153.25;5064208;28;20042;-73
2022/02/25 04:18:38;;;;;;;27.27;12.25;;;;;;;-0.79;63.95;94162.16;5064097;28;20021;-73
2022/02/25 04:21:04;;;;;;;31.55;12.07;;;;;;;-0.78;63.70;94155.88;5064012;28;20017;-73
2022/02/25 04:23:29;;;;;;;31.73;11.38;;;;;;;-0.81;63.67;94151.13;5064305;28;20318;-73
2022/02/25 04:25:55;;;;;;;25.70;11.90;;;;;;;-0.77;63.48;94152.25;5064139;28;20036;-73
2022/02/25 04:28:20;;;;;;;27.77;11.38;;;;;;;-0.75;63.58;94150.19;5063908;28;20307;-73
2022/02/25 04:30:46;;;;;;;37.13;13.10;;;;;;;-0.76;63.18;94143.34;5064168;28;20091;-73
2022/02/25 04:33:12;;;;;;;32.25;11.10;;;;;;;-0.79;62.95;94135.97;5063760;28;20032;-73
2022/02/25 04:35:37;;;;;;;20.73;9.65;;;;;;;-0.82;63.36;94137.22;5063979;28;20025;-73
2022/02/25 04:38:03;;;;;;;16.55;7.80;;;;;;;-0.84;62.85;94133.25;5063934;28;20017;-73
2022/02/25 04:40:30;;;;;;;21.38;9.18;;;;;;;-0.86;63.18;94132.69;5063935;28;20211;-73
2022/02/25 04:42:55;;;;;;;21.20;8.65;;;;;;;-0.88;63.19;94121.69;5063541;28;20241;-73
2022/02/25 04:45:21;;;;;;;17.20;7.75;;;;;;;-0.87;63.29;94125.91;5063622;28;20016;-75
2022/02/25 04:47:46;;;;;;;22.92;10.05;;;;;;;-0.89;63.16;94128.75;5063632;28;20023;-74
2022/02/25 04:50:13;;;;;;;33.38;10.20;;;;;;;-0.87;62.87;94123.28;5063464;28;20215;-74
2022/02/25 04:52:41;;;;;;;30.08;11.75;;;;;;;-0.91;63.60;94122.16;5063715;28;20132;-74
2022/02/25 04:55:08;;;;;;;18.08;8.95;;;;;;;-0.92;63.43;94123.19;5063416;28;20059;-74
2022/02/25 04:57:33;;;;;;;31.60;10.88;;;;;;;-0.89;62.78;94118.28;5063453;28;20017;-74
2022/02/25 04:59:59;;;;;;;26.85;9.88;;;;;;;-0.88;62.75;94116.44;5063463;28;20020;-74
2022/02/25 05:02:24;;;;;;;17.83;9.57;;;;;;;-0.93;62.60;94111.91;5063177;28;20342;-75
2022/02/25 05:04:50;;;;;;;21.98;8.63;;;;;;;-0.87;62.11;94110.19;5062808;28;20021;-74
2022/02/25 05:07:15;;;;;;;27.23;9.38;;;;;;;-0.87;62.23;94105.75;5063188;28;20207;-74
2022/02/25 05:09:41;;;;;;;19.42;7.65;;;;;;;-0.92;61.88;94110.88;5063384;28;20062;-74
2022/02/25 05:12:07;;;;;;;20.90;7.50;;;;;;;-0.87;61.98;94097.91;5063127;28;20040;-74
2022/02/25 05:20:16;;;;;;;18.33;5.82;;;;;;;-0.91;61.73;94115.09;5063047;28;20055;-74
2022/02/25 05:22:42;;;;;;;13.07;5.88;;;;;;;-0.96;61.46;94116.81;5062980;28;20115;-74
2022/02/25 05:25:09;;;;;;;25.30;8.55;;;;;;;-1.01;62.04;94112.31;5063053;28;20274;-74
2022/02/25 05:27:34;;;;;;;28.00;9.95;;;;;;;-1.02;63.33;94106.28;5062762;28;20020;-74
2022/02/25 05:30:01;;;;;;;33.85;10.80;;;;;;;-1.06;63.86;94114.81;5062846;28;20035;-75
2022/02/25 05:32:26;;;;;;;27.35;9.48;;;;;;;-1.05;63.77;94114.59;5063189;28;20024;-74
2022/02/25 05:34:52;;;;;;;25.30;9.88;;;;;;;-1.04;63.75;94120.59;5062990;28;20348;-74
2022/02/25 05:37:17;;;;;;;47.47;15.80;;;;;;;-1.01;63.92;94125.38;5062684;28;20045;-75
2022/02/25 05:39:43;;;;;;;38.55;15.18;;;;;;;-0.93;64.30;94132.06;5062849;28;20021;-74
2022/02/25 05:42:08;;;;;;;34.00;12.95;;;;;;;-0.87;64.07;94137.16;5062887;28;20090;-73
2022/02/25 05:44:34;;;;;;;35.30;12.80;;;;;;;-0.86;64.03;94137.94;5062730;28;20254;-74
2022/02/25 05:47:00;;;;;;;43.67;12.05;;;;;;;-0.78;63.97;94142.78;5062705;28;20238;-76
2022/02/25 05:49:25;;;;;;;32.38;11.48;;;;;;;-0.68;63.98;94145.59;5061441;28;20071;-72
2022/02/25 05:51:51;;;;;;;28.13;12.45;;;;;;;-0.61;63.89;94134.97;5062387;28;20028;-72
2022/02/25 05:54:16;;;;;;;35.65;12.75;;;;;;;-0.59;63.89;94138.16;5062402;28;20059;-72
2022/02/25 05:56:42;;;;;;;45.22;15.27;;;;;;;-0.51;63.97;94144.81;5062510;28;20059;-72
2022/02/25 05:59:07;;;;;;;41.38;18.58;;;;;;;-0.49;63.90;94137.50;5062571;28;20322;-74
2022/02/25 06:01:33;;;;;;;52.75;18.85;;;;;;;-0.38;63.88;94139.28;5062659;28;20377;-74
2022/02/25 06:03:58;;;;;;;41.13;15.25;;;;;;;-0.32;63.91;94143.56;5062323;28;20028;-74
2022/02/25 06:06:23;;;;;;;46.88;17.80;;;;;;;-0.33;63.53;94149.81;5062567;28;20051;-74
2022/02/25 06:08:49;;;;;;;48.17;18.83;;;;;;;-0.29;63.69;94140.47;5062766;28;20013;-74
2022/02/25 06:11:14;;;;;;;40.40;17.15;;;;;;;-0.24;63.87;94143.16;5062325;28;20028;-74
2022/02/25 06:13:40;;;;;;;52.50;20.02;;;;;;;-0.16;63.52;94141.97;5062218;28;20044;-74
2022/02/25 06:16:05;;;;;;;47.10;17.98;;;;;;;-0.02;63.62;94131.94;5062746;28;20016;-74
2022/02/25 06:18:31;;;;;;;45.15;17.25;;;;;;;0.06;63.33;94131.56;5066617;28;20020;-74
2022/02/25 06:20:56;;;;;;;35.72;16.20;;;;;;;0.17;63.18;94128.03;5066314;28;20021;-73
2022/02/25 06:23:24;;;;;;;35.70;15.18;;;;;;;0.33;62.51;94128.25;5066394;28;20059;-74
2022/02/25 06:25:50;;;;;;;36.42;15.32;;;;;;;0.43;62.32;94124.94;5065990;28;20215;-75
2022/02/25 06:28:16;;;;;;;45.47;16.15;;;;;;;0.57;62.32;94120.94;5066278;28;20020;-74
2022/02/25 06:30:42;;;;;;;32.55;14.20;;;;;;;0.72;61.99;94120.34;5066648;28;20075;-75
2022/02/25 06:33:07;;;;;;;39.20;13.10;;;;;;;0.80;61.56;94114.66;5066486;28;20244;-75
2022/02/25 06:35:34;;;;;;;52.03;18.20;;;;;;;0.95;60.67;94120.06;5066281;28;20445;-75
2022/02/25 06:37:59;;;;;;;45.25;16.88;;;;;;;1.04;60.39;94122.25;5066055;28;20317;-75
2022/02/25 06:40:25;;;;;;;43.03;16.77;;;;;;;1.11;60.33;94123.66;5065906;28;20017;-75
2022/02/25 06:42:51;;;;;;;50.17;16.27;;;;;;;1.18;60.08;94133.94;5066079;28;20024;-75
2022/02/25 06:45:17;;;;;;;47.50;18.10;;;;;;;1.18;60.10;94132.13;5066191;28;20033;-75
2022/02/25 06:47:43;;;;;;;47.55;16.42;;;;;;;1.22;60.35;94139.50;5066055;28;20043;-75
2022/02/25 06:50:09;;;;;;;39.13;16.13;;;;;;;1.21;60.46;94136.09;5065561;28;20025;-75
2022/02/25 06:52:35;;;;;;;50.25;15.30;;;;;;;1.20;60.67;94134.50;5066019;28;20077;-75
2022/02/25 06:55:01;;;;;;;37.45;15.70;;;;;;;1.26;60.11;94141.38;5065585;28;20205;-71
2022/02/25 06:57:26;;;;;;;38.17;14.75;;;;;;;1.20;60.08;94148.44;5065437;28;20024;-71
2022/02/25 06:59:52;;;;;;;34.35;16.10;;;;;;;1.04;61.33;94145.88;5065362;28;20326;-71
2022/02/25 07:02:17;;;;;;;42.38;16.75;;;;;;;0.90;61.75;94138.38;5065454;28;20029;-71
2022/02/25 07:04:43;;;;;;;41.88;15.35;;;;;;;0.84;62.17;94138.59;5065615;28;20112;-71
2022/02/25 07:07:08;;;;;;;35.95;15.52;;;;;;;0.84;61.94;94135.97;5065395;28;20032;-71
2022/02/25 07:09:34;;;;;;;48.20;17.05;;;;;;;0.88;61.46;94137.84;5065158;28;20075;-71
2022/02/25 07:11:59;;;;;;;38.13;16.58;;;;;;;0.82;62.02;94133.56;5064968;28;20041;-71
2022/02/25 07:14:25;;;;;;;46.70;16.25;;;;;;;0.85;62.45;94130.44;5065086;28;20279;-71
2022/02/25 07:16:50;;;;;;;40.40;17.15;;;;;;;0.87;62.94;94136.25;5065250;28;20051;-80
2022/02/25 07:19:16;;;;;;;42.60;17.90;;;;;;;0.94;62.60;94129.00;5065333;28;20021;-81
2022/02/25 07:21:42;;;;;;;38.80;17.17;;;;;;;1.00;62.62;94132.47;5064498;28;20192;-81
2022/02/25 07:24:07;;;;;;;43.83;17.98;;;;;;;1.03;61.85;94137.22;5065092;28;20028;-80
2022/02/25 07:26:33;;;;;;;41.95;17.20;;;;;;;1.09;62.01;94136.22;5065188;28;20044;-80
2022/02/25 07:28:58;;;;;;;47.60;17.83;;;;;;;1.09;61.50;94130.19;5064823;28;20047;-80
2022/02/25 07:31:24;;;;;;;45.42;18.02;;;;;;;1.15;62.22;94129.19;5065332;28;20021;-79
2022/02/25 07:33:49;;;;;;;35.80;17.83;;;;;;;1.20;61.39;94127.44;5065529;28;20017;-80
2022/02/25 07:36:14;;;;;;;40.92;16.83;;;;;;;1.25;60.54;94134.56;5065373;28;20017;-79
2022/02/25 07:38:40;;;;;;;50.75;17.27;;;;;;;1.32;60.61;94137.78;5065143;28;20027;-80
2022/02/25 07:41:05;;;;;;;46.00;18.00;;;;;;;1.43;61.15;94137.88;5065084;28;20029;-79
2022/02/25 07:43:31;;;;;;;51.83;17.95;;;;;;;1.55;61.07;94147.19;5064038;28;20025;-79
2022/02/25 07:45:56;;;;;;;37.72;18.35;;;;;;;1.64;60.17;94134.38;5064814;28;20017;-80
2022/02/25 07:48:22;;;;;;;42.47;18.40;;;;;;;1.77;59.58;94131.34;5064656;28;20029;-80
2022/02/25 07:50:48;;;;;;;55.30;16.95;;;;;;;1.88;59.20;94134.84;5064400;28;20025;-81
2022/02/25 07:53:15;;;;;;;36.95;16.13;;;;;;;2.02;58.62;94137.03;5064807;28;20091;-80
2022/02/25 07:55:40;;;;;;;44.75;15.60;;;;;;;2.12;58.36;94137.91;5064741;28;20024;-74
2022/02/25 07:58:06;;;;;;;46.80;16.67;;;;;;;2.22;57.65;94145.06;5063045;28;20029;-73
2022/02/25 08:00:33;;;;;;;42.03;14.63;;;;;;;2.15;57.14;94137.38;5063021;28;20406;-75
2022/02/25 08:03:01;;;;;;;39.22;14.00;;;;;;;2.20;56.34;94134.78;5062601;28;20078;-74
2022/02/25 08:05:27;;;;;;;30.63;13.75;;;;;;;2.28;56.21;94130.09;5064032;28;20025;-73
2022/02/25 08:07:53;;;;;;;35.85;14.32;;;;;;;2.29;55.60;94132.47;5064201;28;20311;-74
2022/02/25 08:10:18;;;;;;;33.17;13.35;;;;;;;2.36;55.64;94132.25;5063878;28;20028;-75
2022/02/25 08:12:44;;;;;;;31.58;13.57;;;;;;;2.40;55.25;94128.06;5064226;28;20049;-74
2022/02/25 08:15:10;;;;;;;47.70;13.27;;;;;;;2.46;54.63;94115.72;5064219;28;20071;-74
2022/02/25 08:17:36;;;;;;;31.83;12.68;;;;;;;2.51;53.93;94111.28;5064270;28;20017;-74
2022/02/25 08:20:03;;;;;;;30.27;12.70;;;;;;;2.50;54.35;94106.28;5063904;28;20093;-75
2022/02/25 08:22:28;;;;;;;33.80;12.85;;;;;;;2.59;54.10;94099.47;5063957;28;20391;-75
2022/02/25 08:24:54;;;;;;;31.65;12.73;;;;;;;2.68;54.02;94107.66;5064032;28;20028;-74
2022/02/25 08:27:19;;;;;;;35.53;14.20;;;;;;;2.76;53.83;94110.59;5063968;28;20251;-74
2022/02/25 08:29:45;;;;;;;49.65;13.85;;;;;;;2.83;53.80;94115.63;5064057;28;20023;-73
2022/02/25 08:32:11;;;;;;;40.60;13.20;;;;;;;2.79;53.86;94115.34;5063671;28;20021;-74
2022/02/25 08:34:36;;;;;;;29.27;11.68;;;;;;;2.93;53.18;94114.84;5063725;28;20100;-74
2022/02/25 08:37:02;;;;;;;28.85;10.48;;;;;;;2.96;53.26;94117.00;5063830;28;20323;-74
2022/02/25 08:39:28;;;;;;;25.25;10.35;;;;;;;3.07;52.74;94102.00;5062976;28;20024;-73
2022/02/25 08:41:54;;;;;;;28.10;9.65;;;;;;;3.10;51.78;94104.13;5063493;28;20334;-74
2022/02/25 08:44:20;;;;;;;33.10;10.40;;;;;;;3.17;51.99;94100.19;5063225;28;20059;-75
2022/02/25 08:46:47;;;;;;;19.50;10.02;;;;;;;3.24;51.54;94099.94;5063800;28;20024;-75
2022/02/25 08:49:12;;;;;;;37.25;12.52;;;;;;;3.36;52.02;94092.59;5063720;28;20052;-74
2022/02/25 08:51:40;;;;;;;35.05;11.85;;;;;;;3.53;52.03;94091.53;5063411;28;20025;-74
2022/02/25 08:54:06;;;;;;;37.25;11.20;;;;;;;3.65;51.53;94084.16;5063248;28;20028;-74
2022/02/25 08:56:31;;;;;;;30.65;11.13;;;;;;;3.77;51.25;94087.34;5063537;28;20094;-74
2022/02/25 08:58:57;;;;;;;26.70;9.93;;;;;;;3.93;50.92;94080.19;5063397;28;20036;-73
2022/02/25 09:01:23;;;;;;;32.40;11.45;;;;;;;4.12;50.28;94082.28;5063199;28;20020;-73
2022/02/25 09:03:49;;;;;;;24.80;10.43;;;;;;;4.20;50.45;94084.38;5062880;28;20240;-73
2022/02/25 09:06:15;;;;;;;28.10;10.70;;;;;;;4.25;49.21;94080.94;5062699;28;20033;-72
2022/02/25 09:08:41;;;;;;;27.80;10.93;;;;;;;4.39;48.96;94072.19;5062714;28;20041;-72
2022/02/25 09:11:08;;;;;;;37.17;10.52;;;;;;;4.54;48.57;94066.06;5062535;28;20331;-72
2022/02/25 09:13:33;;;;;;;25.85;10.30;;;;;;;4.68;48.19;94062.84;5062528;28;20052;-72
2022/02/25 09:15:58;;;;;;;29.45;11.30;;;;;;;4.83;48.22;94054.88;5062634;28;20070;-72
2022/02/25 09:18:24;;;;;;;64.18;31.13;;;;;;;4.86;47.33;94059.59;5062537;28;20393;-72
2022/02/25 09:20:51;;;;;;;30.15;12.88;;;;;;;5.00;47.51;94050.00;5062395;28;20096;-71
2022/02/25 09:23:17;;;;;;;38.95;12.38;;;;;;;5.15;47.15;94048.34;5062651;28;20227;-72
2022/02/25 09:25:42;;;;;;;31.67;10.40;;;;;;;5.28;46.89;94052.22;5062340;28;20040;-71
2022/02/25 09:28:08;;;;;;;22.67;9.48;;;;;;;5.38;46.21;94039.72;5062427;28;20044;-72
2022/02/25 09:30:34;;;;;;;29.20;10.27;;;;;;;5.46;46.00;94040.22;5062419;28;20029;-71
2022/02/25 09:33:08;;;;;;;32.15;10.77;;;;;;;5.60;45.09;94049.09;5062405;28;20126;-71
2022/02/25 09:35:33;;;;;;;23.85;10.00;;;;;;;5.66;45.38;94040.06;5062358;28;20102;-71
2022/02/25 09:37:59;;;;;;;29.40;10.18;;;;;;;5.75;45.46;94043.66;5062582;28;20028;-71
2022/02/25 09:40:24;;;;;;;52.92;19.85;;;;;;;5.88;44.98;94044.88;5062650;28;20052;-71
2022/02/25 09:42:50;;;;;;;39.03;18.52;;;;;;;5.98;44.13;94039.53;5062596;28;20055;-70
2022/02/25 09:45:17;;;;;;;28.25;12.07;;;;;;;6.06;44.03;94032.81;5062604;28;20036;-71
2022/02/25 09:47:43;;;;;;;20.38;10.30;;;;;;;6.17;43.63;94036.19;5062484;28;20025;-71
2022/02/25 09:50:11;;;;;;;26.00;10.90;;;;;;;6.22;43.36;94023.66;5062319;28;20091;-71
2022/02/25 09:52:39;;;;;;;23.05;12.15;;;;;;;6.34;43.31;94017.19;5062624;28;20028;-71
2022/02/25 09:55:17;;;;;;;26.60;11.57;;;;;;;6.47;42.92;94005.13;5062606;28;20031;-71
2022/02/25 09:57:43;;;;;;;32.97;11.60;;;;;;;6.61;42.67;94012.13;5062233;28;20067;-72
2022/02/25 10:00:08;;;;;;;22.92;10.43;;;;;;;6.76;41.33;94002.41;5062491;28;20048;-71
2022/02/25 10:02:43;;;;;;;31.70;12.57;;;;;;;6.66;41.47;94000.66;5062190;28;20188;-71
2022/02/25 10:05:12;;;;;;;34.25;11.45;;;;;;;6.68;41.71;93990.56;5062314;28;20048;-71
2022/02/25 10:07:38;;;;;;;24.40;11.45;;;;;;;6.79;40.93;93999.16;5062223;28;20029;-71
2022/02/25 10:10:06;;;;;;;29.00;11.93;;;;;;;6.95;40.60;93995.22;5062101;28;20032;-71
2022/02/25 10:12:32;;;;;;;29.60;13.38;;;;;;;7.08;40.45;93995.59;5062055;28;20335;-70
2022/02/25 10:14:59;;;;;;;29.70;11.50;;;;;;;7.23;40.52;93993.50;5062130;28;20040;-70
2022/02/25 10:17:26;;;;;;;36.28;11.75;;;;;;;7.35;40.10;93994.94;5062143;28;20025;-72
2022/02/25 10:19:53;;;;;;;26.20;11.73;;;;;;;7.46;39.43;93988.38;5062026;28;20029;-71
2022/02/25 10:22:24;;;;;;;37.50;12.20;;;;;;;7.52;39.28;93992.53;5062471;28;20058;-72
2022/02/25 10:25:10;;;;;;;28.25;12.48;;;;;;;7.57;37.91;93996.97;5062003;28;20067;-72
2022/02/25 10:27:37;;;;;;;28.55;11.35;;;;;;;7.47;38.12;93989.97;5062167;28;20043;-72
2022/02/25 10:30:13;;;;;;;21.90;10.52;;;;;;;7.44;38.83;93983.38;5061943;28;20141;-71
2022/02/25 10:32:44;;;;;;;28.63;12.38;;;;;;;7.54;39.08;93984.28;5061954;28;20036;-72
2022/02/25 10:35:29;;;;;;;24.07;11.17;;;;;;;7.63;37.39;93971.91;5062231;28;20098;-72
2022/02/25 10:37:57;;;;;;;30.27;10.98;;;;;;;7.61;37.78;93974.06;5061881;28;20051;-72
2022/02/25 10:40:25;;;;;;;25.73;10.88;;;;;;;7.64;37.89;93989.44;5061769;28;20032;-72
2022/02/25 10:42:50;;;;;;;21.40;10.73;;;;;;;7.75;37.29;93985.50;5062014;28;20028;-72
2022/02/25 10:45:38;;;;;;;23.70;9.90;;;;;;;7.87;37.78;93971.00;5062104;28;20092;-73
2022/02/25 10:48:07;;;;;;;27.98;10.27;;;;;;;7.94;36.50;93979.38;5061882;28;20033;-72
2022/02/25 10:50:42;;;;;;;34.28;11.15;;;;;;;7.96;35.70;93963.94;5061823;28;20254;-72
2022/02/25 10:53:09;;;;;;;19.77;8.93;;;;;;;7.89;35.85;93961.66;5061785;28;20037;-72
2022/02/25 10:55:34;;;;;;;25.08;10.52;;;;;;;7.93;36.13;93954.69;5062024;28;20032;-72
2022/02/25 10:58:01;;;;;;;28.70;11.52;;;;;;;7.91;35.79;93946.22;5061816;28;20331;-72
2022/02/25 11:00:26;;;;;;;29.25;9.88;;;;;;;7.93;36.49;93953.91;5061943;28;20036;-71
2022/02/25 11:02:56;;;;;;;27.25;9.68;;;;;;;7.95;34.59;93938.47;5063193;28;20280;-71
2022/02/25 11:05:32;;;;;;;31.60;8.60;;;;;;;7.84;35.00;93933.34;5065376;28;20025;-71
2022/02/25 11:08:03;;;;;;;16.80;8.45;;;;;;;7.81;35.24;93922.53;5065396;28;20031;-71
2022/02/25 11:10:31;;;;;;;21.60;9.35;;;;;;;7.88;35.58;93922.94;5065314;28;20056;-71
2022/02/25 11:13:01;;;;;;;23.60;11.55;;;;;;;7.91;35.32;93925.00;5065448;28;20055;-71
2022/02/25 11:15:32;;;;;;;26.45;9.43;;;;;;;7.90;34.95;93920.00;5065158;28;20029;-71
2022/02/25 11:17:58;;;;;;;33.60;10.45;;;;;;;7.86;35.50;93919.00;5065264;28;20115;-71
2022/02/25 11:20:35;;;;;;;18.83;8.73;;;;;;;7.96;36.20;93905.56;5065041;28;20342;-71
2022/02/25 11:23:08;;;;;;;32.17;10.90;;;;;;;8.09;36.36;93907.41;5064957;28;20067;-71
2022/02/25 11:25:35;;;;;;;37.85;11.38;;;;;;;8.25;35.65;93905.25;5065105;28;20033;-71